sensor_id;sensor_type;location;lat;lon;timestamp;pressure;altitude;pressure_sealevel;temperature;humidity
19736;BME280;32064;49.310;8.646;2024-01-25T00:01:11;101778.88;;;14.97;61.37
19736;BME280;32064;49.310;8.646;2024-01-25T00:03:37;101781.75;;;14.94;62.06
19736;BME280;32064;49.310;8.646;2024-01-25T00:06:02;101782.28;;;14.99;61.96
19736;BME280;32064;49.310;8.646;2024-01-25T00:08:28;101770.63;;;14.89;61.46
19736;BME280;32064;49.310;8.646;2024-01-25T00:10:53;101775.50;;;14.95;62.12
19736;BME280;32064;49.310;8.646;2024-01-25T00:13:19;101769.66;;;14.90;62.44
19736;BME280;32064;49.310;8.646;2024-01-25T00:15:44;101754.94;;;14.86;61.87
19736;BME280;32064;49.310;8.646;2024-01-25T00:18:10;101765.75;;;14.69;62.66
19736;BME280;32064;49.310;8.646;2024-01-25T00:20:35;101761.03;;;14.74;62.65
19736;BME280;32064;49.310;8.646;2024-01-25T00:23:01;101755.56;;;14.63;62.79
19736;BME280;32064;49.310;8.646;2024-01-25T00:25:26;101760.38;;;14.70;62.28
19736;BME280;32064;49.310;8.646;2024-01-25T00:27:52;101751.25;;;14.62;62.42
19736;BME280;32064;49.310;8.646;2024-01-25T00:30:17;101748.81;;;14.71;62.36
19736;BME280;32064;49.310;8.646;2024-01-25T00:32:43;101749.13;;;14.67;62.47
19736;BME280;32064;49.310;8.646;2024-01-25T00:35:09;101754.44;;;14.67;62.81
19736;BME280;32064;49.310;8.646;2024-01-25T00:37:36;101753.75;;;14.63;61.97
19736;BME280;32064;49.310;8.646;2024-01-25T00:40:02;101749.38;;;14.49;62.67
19736;BME280;32064;49.310;8.646;2024-01-25T00:42:28;101747.28;;;14.54;63.29
19736;BME280;32064;49.310;8.646;2024-01-25T00:44:55;101742.81;;;14.55;62.55
19736;BME280;32064;49.310;8.646;2024-01-25T00:47:21;101744.34;;;14.59;62.47
19736;BME280;32064;49.310;8.646;2024-01-25T00:49:47;101734.09;;;14.67;62.00
19736;BME280;32064;49.310;8.646;2024-01-25T00:52:13;101744.34;;;14.59;62.48
19736;BME280;32064;49.310;8.646;2024-01-25T00:54:38;101750.28;;;14.63;62.26
19736;BME280;32064;49.310;8.646;2024-01-25T00:57:04;101751.38;;;14.73;62.02
19736;BME280;32064;49.310;8.646;2024-01-25T00:59:30;101753.06;;;14.74;61.59
19736;BME280;32064;49.310;8.646;2024-01-25T01:01:58;101755.22;;;14.81;62.23
19736;BME280;32064;49.310;8.646;2024-01-25T01:04:24;101749.72;;;14.85;61.62
19736;BME280;32064;49.310;8.646;2024-01-25T01:06:49;101750.41;;;14.74;61.94
19736;BME280;32064;49.310;8.646;2024-01-25T01:09:15;101748.97;;;14.82;61.74
19736;BME280;32064;49.310;8.646;2024-01-25T01:11:40;101748.13;;;14.82;62.21
19736;BME280;32064;49.310;8.646;2024-01-25T01:14:06;101757.75;;;14.83;62.19
19736;BME280;32064;49.310;8.646;2024-01-25T01:16:31;101752.38;;;14.85;61.32
19736;BME280;32064;49.310;8.646;2024-01-25T01:18:58;101746.97;;;14.86;61.76
19736;BME280;32064;49.310;8.646;2024-01-25T01:21:30;101751.06;;;14.77;61.63
19736;BME280;32064;49.310;8.646;2024-01-25T01:23:56;101747.88;;;14.72;61.29
19736;BME280;32064;49.310;8.646;2024-01-25T01:26:21;101757.97;;;14.80;61.60
19736;BME280;32064;49.310;8.646;2024-01-25T01:28:46;101748.13;;;14.82;61.10
19736;BME280;32064;49.310;8.646;2024-01-25T01:31:12;101748.31;;;14.79;61.89
19736;BME280;32064;49.310;8.646;2024-01-25T01:33:38;101744.63;;;14.81;61.38
19736;BME280;32064;49.310;8.646;2024-01-25T01:36:03;101751.53;;;14.84;60.99
19736;BME280;32064;49.310;8.646;2024-01-25T01:38:28;101755.03;;;14.85;61.36
19736;BME280;32064;49.310;8.646;2024-01-25T01:40:54;101757.53;;;14.73;61.42
19736;BME280;32064;49.310;8.646;2024-01-25T01:43:20;101745.75;;;14.77;60.67
19736;BME280;32064;49.310;8.646;2024-01-25T01:45:45;101757.88;;;14.81;60.65
19736;BME280;32064;49.310;8.646;2024-01-25T01:48:11;101741.34;;;14.78;61.01
19736;BME280;32064;49.310;8.646;2024-01-25T01:50:37;101736.53;;;14.70;61.33
19736;BME280;32064;49.310;8.646;2024-01-25T01:53:03;101741.72;;;14.72;61.19
19736;BME280;32064;49.310;8.646;2024-01-25T01:55:29;101751.38;;;14.73;61.38
19736;BME280;32064;49.310;8.646;2024-01-25T01:57:55;101750.41;;;14.74;61.59
19736;BME280;32064;49.310;8.646;2024-01-25T02:00:20;101751.38;;;14.73;61.15
19736;BME280;32064;49.310;8.646;2024-01-25T02:02:46;101746.63;;;14.78;60.42
19736;BME280;32064;49.310;8.646;2024-01-25T02:05:12;101748.25;;;14.80;60.56
19736;BME280;32064;49.310;8.646;2024-01-25T02:07:38;101748.25;;;14.80;61.14
19736;BME280;32064;49.310;8.646;2024-01-25T02:10:06;101760.53;;;14.81;60.50
19736;BME280;32064;49.310;8.646;2024-01-25T02:12:31;101761.66;;;14.77;61.16
19736;BME280;32064;49.310;8.646;2024-01-25T02:14:57;101765.06;;;14.79;61.32
19736;BME280;32064;49.310;8.646;2024-01-25T02:17:22;101767.84;;;14.78;61.24
19736;BME280;32064;49.310;8.646;2024-01-25T02:19:48;101761.47;;;14.80;60.71
19736;BME280;32064;49.310;8.646;2024-01-25T02:22:18;101763.78;;;14.72;61.34
19736;BME280;32064;49.310;8.646;2024-01-25T02:24:44;101758.91;;;14.79;60.76
19736;BME280;32064;49.310;8.646;2024-01-25T02:27:09;101753.63;;;14.79;60.77
19736;BME280;32064;49.310;8.646;2024-01-25T02:29:34;101757.03;;;14.81;60.60
19736;BME280;32064;49.310;8.646;2024-01-25T02:32:00;101744.50;;;14.83;61.05
19736;BME280;32064;49.310;8.646;2024-01-25T02:34:25;101747.28;;;14.81;60.43
19736;BME280;32064;49.310;8.646;2024-01-25T02:36:50;101746.44;;;14.81;60.49
19736;BME280;32064;49.310;8.646;2024-01-25T02:39:16;101748.13;;;14.82;61.24
19736;BME280;32064;49.310;8.646;2024-01-25T02:41:41;101745.88;;;14.76;61.02
19736;BME280;32064;49.310;8.646;2024-01-25T02:44:08;101744.00;;;14.78;60.98
19736;BME280;32064;49.310;8.646;2024-01-25T02:46:33;101748.94;;;14.70;60.84
19736;BME280;32064;49.310;8.646;2024-01-25T02:48:58;101758.47;;;14.72;60.67
19736;BME280;32064;49.310;8.646;2024-01-25T02:51:24;101764.84;;;14.70;61.58
19736;BME280;32064;49.310;8.646;2024-01-25T02:53:49;101758.47;;;14.72;61.05
19736;BME280;32064;49.310;8.646;2024-01-25T02:56:15;101759.75;;;14.67;61.43
19736;BME280;32064;49.310;8.646;2024-01-25T02:58:40;101760.78;;;14.64;61.44
19736;BME280;32064;49.310;8.646;2024-01-25T03:01:05;101758.69;;;14.69;61.22
19736;BME280;32064;49.310;8.646;2024-01-25T03:03:31;101755.16;;;14.69;60.68
19736;BME280;32064;49.310;8.646;2024-01-25T03:05:56;101760.88;;;14.63;60.87
19736;BME280;32064;49.310;8.646;2024-01-25T03:08:22;101769.56;;;14.65;60.84
19736;BME280;32064;49.310;8.646;2024-01-25T03:10:47;101767.13;;;14.62;60.94
19736;BME280;32064;49.310;8.646;2024-01-25T03:13:16;101766.38;;;14.45;61.08
19736;BME280;32064;49.310;8.646;2024-01-25T03:15:44;101759.78;;;14.52;61.22
19736;BME280;32064;49.310;8.646;2024-01-25T03:18:10;101767.78;;;14.51;61.00
19736;BME280;32064;49.310;8.646;2024-01-25T03:20:35;101767.72;;;14.52;60.92
19736;BME280;32064;49.310;8.646;2024-01-25T03:23:01;101760.63;;;14.53;60.88
19736;BME280;32064;49.310;8.646;2024-01-25T03:25:26;101767.97;;;14.48;60.81
19736;BME280;32064;49.310;8.646;2024-01-25T03:27:52;101770.06;;;14.57;60.65
19736;BME280;32064;49.310;8.646;2024-01-25T03:30:17;101763.28;;;14.53;61.06
19736;BME280;32064;49.310;8.646;2024-01-25T03:32:42;101768.25;;;14.57;59.79
19736;BME280;32064;49.310;8.646;2024-01-25T03:35:08;101764.75;;;14.57;60.80
19736;BME280;32064;49.310;8.646;2024-01-25T03:37:33;101764.50;;;14.47;60.82
19736;BME280;32064;49.310;8.646;2024-01-25T03:39:58;101764.38;;;14.49;60.80
19736;BME280;32064;49.310;8.646;2024-01-25T03:42:24;101762.78;;;14.46;61.00
19736;BME280;32064;49.310;8.646;2024-01-25T03:44:50;101772.44;;;14.47;60.70
19736;BME280;32064;49.310;8.646;2024-01-25T03:47:15;101764.22;;;14.37;60.56
19736;BME280;32064;49.310;8.646;2024-01-25T03:49:40;101764.13;;;14.39;60.51
19736;BME280;32064;49.310;8.646;2024-01-25T03:52:06;101774.28;;;14.32;60.58
19736;BME280;32064;49.310;8.646;2024-01-25T03:54:31;101786.63;;;14.32;59.99
19736;BME280;32064;49.310;8.646;2024-01-25T03:56:56;101785.22;;;14.26;60.11
19736;BME280;32064;49.310;8.646;2024-01-25T03:59:22;101794.22;;;14.24;60.28
19736;BME280;32064;49.310;8.646;2024-01-25T04:01:47;101791.94;;;14.18;60.25
19736;BME280;32064;49.310;8.646;2024-01-25T04:04:14;101793.94;;;14.14;60.60
19736;BME280;32064;49.310;8.646;2024-01-25T04:06:41;101804.16;;;14.06;60.50
19736;BME280;32064;49.310;8.646;2024-01-25T04:09:08;101804.06;;;14.07;60.44
19736;BME280;32064;49.310;8.646;2024-01-25T04:11:34;101812.09;;;14.06;60.02
19736;BME280;32064;49.310;8.646;2024-01-25T04:13:59;101809.00;;;13.99;61.04
19736;BME280;32064;49.310;8.646;2024-01-25T04:16:26;101816.94;;;13.99;60.82
19736;BME280;32064;49.310;8.646;2024-01-25T04:18:51;101829.13;;;14.02;59.49
19736;BME280;32064;49.310;8.646;2024-01-25T04:21:16;101828.09;;;14.04;60.40
19736;BME280;32064;49.310;8.646;2024-01-25T04:23:42;101835.25;;;14.02;60.24
19736;BME280;32064;49.310;8.646;2024-01-25T04:26:07;101825.72;;;14.00;60.43
19736;BME280;32064;49.310;8.646;2024-01-25T04:28:32;101825.91;;;13.97;60.44
19736;BME280;32064;49.310;8.646;2024-01-25T04:30:58;101826.94;;;13.94;60.46
19736;BME280;32064;49.310;8.646;2024-01-25T04:33:23;101829.78;;;13.91;60.30
19736;BME280;32064;49.310;8.646;2024-01-25T04:35:48;101836.88;;;13.90;60.54
19736;BME280;32064;49.310;8.646;2024-01-25T04:38:14;101843.38;;;13.85;60.24
19736;BME280;32064;49.310;8.646;2024-01-25T04:40:40;101847.06;;;13.82;60.18
19736;BME280;32064;49.310;8.646;2024-01-25T04:43:05;101841.00;;;13.80;60.33
19736;BME280;32064;49.310;8.646;2024-01-25T04:45:31;101843.00;;;13.77;59.96
19736;BME280;32064;49.310;8.646;2024-01-25T04:47:56;101842.22;;;13.75;60.04
19736;BME280;32064;49.310;8.646;2024-01-25T04:50:21;101839.75;;;13.72;59.65
19736;BME280;32064;49.310;8.646;2024-01-25T04:52:47;101850.53;;;13.68;59.94
19736;BME280;32064;49.310;8.646;2024-01-25T04:55:12;101854.22;;;13.66;60.99
19736;BME280;32064;49.310;8.646;2024-01-25T04:57:37;101854.56;;;13.60;60.96
19736;BME280;32064;49.310;8.646;2024-01-25T05:00:03;101857.47;;;13.55;60.76
19736;BME280;32064;49.310;8.646;2024-01-25T05:02:29;101869.09;;;13.53;60.44
19736;BME280;32064;49.310;8.646;2024-01-25T05:04:55;101855.19;;;13.49;60.67
19736;BME280;32064;49.310;8.646;2024-01-25T05:07:20;101866.91;;;13.45;60.58
19736;BME280;32064;49.310;8.646;2024-01-25T05:09:45;101868.84;;;13.41;60.45
19736;BME280;32064;49.310;8.646;2024-01-25T05:12:11;101868.13;;;13.39;60.27
19736;BME280;32064;49.310;8.646;2024-01-25T05:14:36;101865.56;;;13.38;60.87
19736;BME280;32064;49.310;8.646;2024-01-25T05:17:01;101871.97;;;13.34;60.71
19736;BME280;32064;49.310;8.646;2024-01-25T05:19:27;101873.84;;;13.32;60.84
19736;BME280;32064;49.310;8.646;2024-01-25T05:21:52;101874.03;;;13.29;60.60
19736;BME280;32064;49.310;8.646;2024-01-25T05:24:17;101882.91;;;13.28;60.92
19736;BME280;32064;49.310;8.646;2024-01-25T05:26:43;101881.19;;;13.27;60.11
19736;BME280;32064;49.310;8.646;2024-01-25T05:29:08;101887.41;;;13.25;60.36
19736;BME280;32064;49.310;8.646;2024-01-25T05:31:34;101888.31;;;13.24;60.68
19736;BME280;32064;49.310;8.646;2024-01-25T05:34:00;101877.72;;;13.24;61.27
19736;BME280;32064;49.310;8.646;2024-01-25T05:36:25;101876.03;;;13.23;61.42
19736;BME280;32064;49.310;8.646;2024-01-25T05:38:50;101877.00;;;13.22;61.31
19736;BME280;32064;49.310;8.646;2024-01-25T05:41:16;101866.41;;;13.22;61.52
19736;BME280;32064;49.310;8.646;2024-01-25T05:43:41;101877.91;;;13.21;60.84
19736;BME280;32064;49.310;8.646;2024-01-25T05:46:07;101877.34;;;13.16;61.69
19736;BME280;32064;49.310;8.646;2024-01-25T05:48:32;101874.78;;;13.15;61.63
19736;BME280;32064;49.310;8.646;2024-01-25T05:50:57;101878.38;;;13.14;61.06
19736;BME280;32064;49.310;8.646;2024-01-25T05:53:23;101874.53;;;13.03;62.08
19736;BME280;32064;49.310;8.646;2024-01-25T05:55:48;101869.25;;;13.03;61.41
19736;BME280;32064;49.310;8.646;2024-01-25T05:58:13;101875.97;;;12.93;61.57
19736;BME280;32064;49.310;8.646;2024-01-25T06:00:39;101866.38;;;12.92;62.38
19736;BME280;32064;49.310;8.646;2024-01-25T06:03:04;101870.81;;;12.92;62.52
19736;BME280;32064;49.310;8.646;2024-01-25T06:05:30;101869.94;;;12.91;62.24
19736;BME280;32064;49.310;8.646;2024-01-25T06:07:55;101869.06;;;12.91;61.70
19736;BME280;32064;49.310;8.646;2024-01-25T06:10:21;101868.50;;;12.70;62.53
19736;BME280;32064;49.310;8.646;2024-01-25T06:12:46;101863.16;;;12.71;62.45
19736;BME280;32064;49.310;8.646;2024-01-25T06:15:11;101864.75;;;12.74;62.83
19736;BME280;32064;49.310;8.646;2024-01-25T06:17:37;101861.34;;;12.72;62.35
19736;BME280;32064;49.310;8.646;2024-01-25T06:20:03;101868.25;;;12.74;62.85
19736;BME280;32064;49.310;8.646;2024-01-25T06:22:28;101874.28;;;12.76;61.24
19736;BME280;32064;49.310;8.646;2024-01-25T06:24:53;101879.00;;;12.71;62.82
19736;BME280;32064;49.310;8.646;2024-01-25T06:27:19;101891.41;;;12.69;61.71
19736;BME280;32064;49.310;8.646;2024-01-25T06:29:44;101895.75;;;12.70;62.41
19736;BME280;32064;49.310;8.646;2024-01-25T06:32:10;101896.88;;;12.66;61.28
19736;BME280;32064;49.310;8.646;2024-01-25T06:34:35;101893.28;;;12.67;61.38
19736;BME280;32064;49.310;8.646;2024-01-25T06:37:01;101891.59;;;12.66;61.01
19736;BME280;32064;49.310;8.646;2024-01-25T06:39:26;101892.44;;;12.67;61.20
19736;BME280;32064;49.310;8.646;2024-01-25T06:41:51;101897.09;;;12.62;61.30
19736;BME280;32064;49.310;8.646;2024-01-25T06:44:17;101897.28;;;12.58;62.45
19736;BME280;32064;49.310;8.646;2024-01-25T06:46:42;101895.59;;;12.57;61.91
19736;BME280;32064;49.310;8.646;2024-01-25T06:49:08;101892.94;;;12.57;60.63
19736;BME280;32064;49.310;8.646;2024-01-25T06:51:33;101899.91;;;12.58;62.36
19736;BME280;32064;49.310;8.646;2024-01-25T06:53:58;101897.59;;;12.52;61.07
19736;BME280;32064;49.310;8.646;2024-01-25T06:56:24;101898.47;;;12.53;60.71
19736;BME280;32064;49.310;8.646;2024-01-25T06:58:49;101898.47;;;12.53;61.38
19736;BME280;32064;49.310;8.646;2024-01-25T07:01:23;101901.38;;;12.48;60.76
19736;BME280;32064;49.310;8.646;2024-01-25T07:03:48;101908.34;;;12.49;61.02
19736;BME280;32064;49.310;8.646;2024-01-25T07:06:17;101905.69;;;12.49;60.86
19736;BME280;32064;49.310;8.646;2024-01-25T07:08:43;101912.78;;;12.49;61.06
19736;BME280;32064;49.310;8.646;2024-01-25T07:11:09;101916.50;;;12.45;62.27
19736;BME280;32064;49.310;8.646;2024-01-25T07:13:34;101923.13;;;12.36;62.37
19736;BME280;32064;49.310;8.646;2024-01-25T07:15:59;101925.06;;;12.32;61.33
19736;BME280;32064;49.310;8.646;2024-01-25T07:18:25;101927.72;;;12.32;60.57
19736;BME280;32064;49.310;8.646;2024-01-25T07:20:50;101926.00;;;12.31;60.75
19736;BME280;32064;49.310;8.646;2024-01-25T07:23:17;101934.84;;;12.30;61.35
19736;BME280;32064;49.310;8.646;2024-01-25T07:25:42;101931.59;;;12.25;61.68
19736;BME280;32064;49.310;8.646;2024-01-25T07:28:07;101936.19;;;12.22;61.72
19736;BME280;32064;49.310;8.646;2024-01-25T07:30:33;101944.94;;;12.22;61.51
19736;BME280;32064;49.310;8.646;2024-01-25T07:32:58;101946.91;;;12.19;62.35
19736;BME280;32064;49.310;8.646;2024-01-25T07:35:23;101934.81;;;12.15;61.48
19736;BME280;32064;49.310;8.646;2024-01-25T07:37:49;101947.84;;;12.18;60.51
19736;BME280;32064;49.310;8.646;2024-01-25T07:40:14;101941.25;;;12.09;62.29
19736;BME280;32064;49.310;8.646;2024-01-25T07:42:39;101951.25;;;12.02;61.26
19736;BME280;32064;49.310;8.646;2024-01-25T07:45:06;101944.13;;;12.04;62.44
19736;BME280;32064;49.310;8.646;2024-01-25T07:47:31;101946.44;;;12.10;61.39
19736;BME280;32064;49.310;8.646;2024-01-25T07:49:57;101949.69;;;12.16;61.71
19736;BME280;32064;49.310;8.646;2024-01-25T07:52:22;101949.47;;;12.20;61.32
19736;BME280;32064;49.310;8.646;2024-01-25T07:54:47;101937.03;;;12.22;62.31
19736;BME280;32064;49.310;8.646;2024-01-25T07:57:13;101935.09;;;12.26;62.26
19736;BME280;32064;49.310;8.646;2024-01-25T07:59:38;101942.75;;;12.30;62.72
19736;BME280;32064;49.310;8.646;2024-01-25T08:02:04;101938.59;;;12.26;62.37
19736;BME280;32064;49.310;8.646;2024-01-25T08:04:29;101936.03;;;12.25;62.10
19736;BME280;32064;49.310;8.646;2024-01-25T08:06:55;101937.47;;;12.30;62.50
19736;BME280;32064;49.310;8.646;2024-01-25T08:09:21;101929.25;;;12.36;62.28
19736;BME280;32064;49.310;8.646;2024-01-25T08:11:47;101939.56;;;12.41;61.39
19736;BME280;32064;49.310;8.646;2024-01-25T08:14:12;101941.09;;;12.45;62.49
19736;BME280;32064;49.310;8.646;2024-01-25T08:16:38;101945.19;;;12.51;62.30
19736;BME280;32064;49.310;8.646;2024-01-25T08:19:03;101939.69;;;12.55;61.34
19736;BME280;32064;49.310;8.646;2024-01-25T08:21:29;101944.13;;;12.55;62.12
19736;BME280;32064;49.310;8.646;2024-01-25T08:23:55;101945.03;;;12.54;63.17
19736;BME280;32064;49.310;8.646;2024-01-25T08:26:20;101946.75;;;12.55;61.98
19736;BME280;32064;49.310;8.646;2024-01-25T08:28:46;101945.47;;;12.62;63.70
19736;BME280;32064;49.310;8.646;2024-01-25T08:31:12;101941.59;;;12.69;62.79
19736;BME280;32064;49.310;8.646;2024-01-25T08:33:38;101943.81;;;12.77;62.81
19736;BME280;32064;49.310;8.646;2024-01-25T08:36:07;101947.03;;;12.82;63.60
19736;BME280;32064;49.310;8.646;2024-01-25T08:38:32;101946.63;;;12.90;63.37
19736;BME280;32064;49.310;8.646;2024-01-25T08:40:58;101951.66;;;12.94;63.74
19736;BME280;32064;49.310;8.646;2024-01-25T08:43:23;101953.19;;;12.98;62.70
19736;BME280;32064;49.310;8.646;2024-01-25T08:45:48;101955.50;;;13.04;63.26
19736;BME280;32064;49.310;8.646;2024-01-25T08:48:14;101954.22;;;13.12;64.22
19736;BME280;32064;49.310;8.646;2024-01-25T08:50:39;101946.06;;;13.16;63.34
19736;BME280;32064;49.310;8.646;2024-01-25T08:53:05;101942.03;;;13.25;63.59
19736;BME280;32064;49.310;8.646;2024-01-25T08:55:30;101943.75;;;13.26;64.22
19736;BME280;32064;49.310;8.646;2024-01-25T08:57:56;101944.84;;;13.38;63.71
19736;BME280;32064;49.310;8.646;2024-01-25T09:00:21;101946.22;;;13.45;63.44
19736;BME280;32064;49.310;8.646;2024-01-25T09:02:47;101946.06;;;13.48;63.74
19736;BME280;32064;49.310;8.646;2024-01-25T09:05:12;101952.84;;;13.52;64.16
19736;BME280;32064;49.310;8.646;2024-01-25T09:07:38;101945.88;;;13.51;63.28
19736;BME280;32064;49.310;8.646;2024-01-25T09:10:04;101954.13;;;13.61;63.22
19736;BME280;32064;49.310;8.646;2024-01-25T09:12:30;101959.91;;;13.67;63.60
19736;BME280;32064;49.310;8.646;2024-01-25T09:14:55;101969.19;;;13.75;63.24
19736;BME280;32064;49.310;8.646;2024-01-25T09:17:20;101961.06;;;13.78;62.95
19736;BME280;32064;49.310;8.646;2024-01-25T09:19:49;101955.41;;;13.84;63.59
19736;BME280;32064;49.310;8.646;2024-01-25T09:22:17;101968.56;;;13.85;63.44
19736;BME280;32064;49.310;8.646;2024-01-25T09:24:45;101966.22;;;13.95;63.43
19736;BME280;32064;49.310;8.646;2024-01-25T09:27:11;101961.97;;;13.92;63.60
19736;BME280;32064;49.310;8.646;2024-01-25T09:29:37;101955.13;;;14.04;63.46
19736;BME280;32064;49.310;8.646;2024-01-25T09:32:04;101961.47;;;14.16;63.00
19736;BME280;32064;49.310;8.646;2024-01-25T09:34:30;101959.84;;;14.13;63.21
19736;BME280;32064;49.310;8.646;2024-01-25T09:36:55;101968.44;;;14.17;63.14
19736;BME280;32064;49.310;8.646;2024-01-25T09:39:21;101968.19;;;14.36;63.35
19736;BME280;32064;49.310;8.646;2024-01-25T09:41:46;101970.03;;;14.78;62.78
19736;BME280;32064;49.310;8.646;2024-01-25T09:44:11;101964.94;;;15.17;62.81
19736;BME280;32064;49.310;8.646;2024-01-25T09:46:38;101979.75;;;15.88;62.72
19736;BME280;32064;49.310;8.646;2024-01-25T09:49:05;101978.97;;;16.38;63.12
19736;BME280;32064;49.310;8.646;2024-01-25T09:51:36;101974.31;;;17.17;62.34
19736;BME280;32064;49.310;8.646;2024-01-25T09:54:03;101972.31;;;17.93;63.08
19736;BME280;32064;49.310;8.646;2024-01-25T09:56:31;101975.56;;;18.66;61.05
19736;BME280;32064;49.310;8.646;2024-01-25T09:58:58;101972.56;;;19.36;61.01
19736;BME280;32064;49.310;8.646;2024-01-25T10:01:24;101979.03;;;19.98;58.72
19736;BME280;32064;49.310;8.646;2024-01-25T10:03:49;101989.00;;;20.17;57.81
19736;BME280;32064;49.310;8.646;2024-01-25T10:06:16;101990.44;;;20.42;57.13
19736;BME280;32064;49.310;8.646;2024-01-25T10:08:43;101979.44;;;20.35;55.88
19736;BME280;32064;49.310;8.646;2024-01-25T10:11:08;101974.06;;;20.56;55.35
19736;BME280;32064;49.310;8.646;2024-01-25T10:14:00;101977.50;;;20.26;56.68
19736;BME280;32064;49.310;8.646;2024-01-25T10:16:26;101976.28;;;20.92;54.82
19736;BME280;32064;49.310;8.646;2024-01-25T10:18:51;101994.06;;;21.52;53.25
19736;BME280;32064;49.310;8.646;2024-01-25T10:21:19;101988.13;;;22.07;52.87
19736;BME280;32064;49.310;8.646;2024-01-25T10:23:45;101983.97;;;22.52;51.82
19736;BME280;32064;49.310;8.646;2024-01-25T10:26:13;101985.25;;;22.38;49.95
19736;BME280;32064;49.310;8.646;2024-01-25T10:28:39;101980.06;;;22.07;49.95
19736;BME280;32064;49.310;8.646;2024-01-25T10:31:05;101977.84;;;21.54;49.07
19736;BME280;32064;49.310;8.646;2024-01-25T10:33:31;101983.41;;;21.12;47.95
19736;BME280;32064;49.310;8.646;2024-01-25T10:35:58;101986.59;;;20.56;48.02
19736;BME280;32064;49.310;8.646;2024-01-25T10:38:35;101986.66;;;20.03;46.04
19736;BME280;32064;49.310;8.646;2024-01-25T10:41:04;101994.78;;;19.80;48.19
19736;BME280;32064;49.310;8.646;2024-01-25T10:43:30;101988.56;;;19.47;47.85
19736;BME280;32064;49.310;8.646;2024-01-25T10:46:01;101989.28;;;18.95;46.49
19736;BME280;32064;49.310;8.646;2024-01-25T10:48:27;101982.56;;;18.44;48.75
19736;BME280;32064;49.310;8.646;2024-01-25T10:50:55;101986.31;;;18.30;49.32
19736;BME280;32064;49.310;8.646;2024-01-25T10:53:21;101985.69;;;18.15;48.45
19736;BME280;32064;49.310;8.646;2024-01-25T10:55:47;101993.97;;;18.00;48.29
19736;BME280;32064;49.310;8.646;2024-01-25T10:58:16;101991.28;;;17.88;48.64
19736;BME280;32064;49.310;8.646;2024-01-25T11:00:52;101991.47;;;17.50;48.10
19736;BME280;32064;49.310;8.646;2024-01-25T11:03:27;101986.59;;;17.44;49.10
19736;BME280;32064;49.310;8.646;2024-01-25T11:08:31;101980.78;;;17.26;49.92
19736;BME280;32064;49.310;8.646;2024-01-25T11:10:56;101969.38;;;17.37;49.20
19736;BME280;32064;49.310;8.646;2024-01-25T11:13:28;101974.91;;;17.34;51.14
19736;BME280;32064;49.310;8.646;2024-01-25T11:15:54;101959.09;;;17.43;51.20
19736;BME280;32064;49.310;8.646;2024-01-25T11:18:20;101964.66;;;17.40;50.64
19736;BME280;32064;49.310;8.646;2024-01-25T11:20:47;101967.59;;;17.48;50.37
19736;BME280;32064;49.310;8.646;2024-01-25T11:23:15;101957.94;;;17.47;51.04
19736;BME280;32064;49.310;8.646;2024-01-25T11:25:45;101966.53;;;17.51;50.22
19736;BME280;32064;49.310;8.646;2024-01-25T11:28:13;101961.44;;;17.48;51.06
19736;BME280;32064;49.310;8.646;2024-01-25T11:30:39;101956.03;;;17.49;50.96
19736;BME280;32064;49.310;8.646;2024-01-25T11:33:09;101939.78;;;17.41;51.23
19736;BME280;32064;49.310;8.646;2024-01-25T11:35:35;101948.97;;;17.48;51.15
19736;BME280;32064;49.310;8.646;2024-01-25T11:38:00;101947.19;;;17.25;50.77
19736;BME280;32064;49.310;8.646;2024-01-25T11:40:26;101947.94;;;17.27;50.61
19736;BME280;32064;49.310;8.646;2024-01-25T11:42:53;101941.72;;;17.26;50.81
19736;BME280;32064;49.310;8.646;2024-01-25T11:45:19;101935.56;;;17.26;50.29
19736;BME280;32064;49.310;8.646;2024-01-25T11:47:44;101942.59;;;17.27;50.88
19736;BME280;32064;49.310;8.646;2024-01-25T11:50:11;101948.19;;;17.11;50.92
19736;BME280;32064;49.310;8.646;2024-01-25T11:52:37;101943.25;;;16.94;51.58
19736;BME280;32064;49.310;8.646;2024-01-25T11:55:05;101933.53;;;16.93;51.97
19736;BME280;32064;49.310;8.646;2024-01-25T11:57:35;101923.94;;;17.03;52.31
19736;BME280;32064;49.310;8.646;2024-01-25T12:00:01;101916.81;;;17.03;50.63
19736;BME280;32064;49.310;8.646;2024-01-25T12:02:27;101913.22;;;17.04;51.12
19736;BME280;32064;49.310;8.646;2024-01-25T12:04:56;101918.41;;;17.06;50.84
19736;BME280;32064;49.310;8.646;2024-01-25T12:07:21;101901.09;;;17.00;51.13
19736;BME280;32064;49.310;8.646;2024-01-25T12:10:16;101899.72;;;16.95;51.10
19736;BME280;32064;49.310;8.646;2024-01-25T12:12:45;101900.03;;;17.03;51.62
19736;BME280;32064;49.310;8.646;2024-01-25T12:15:13;101893.47;;;16.96;52.08
19736;BME280;32064;49.310;8.646;2024-01-25T12:17:39;101889.72;;;16.98;52.61
19736;BME280;32064;49.310;8.646;2024-01-25T12:20:05;101889.50;;;17.01;52.10
19736;BME280;32064;49.310;8.646;2024-01-25T12:22:36;101891.81;;;17.06;51.85
19736;BME280;32064;49.310;8.646;2024-01-25T12:25:06;101884.19;;;17.01;51.26
19736;BME280;32064;49.310;8.646;2024-01-25T12:27:32;101884.06;;;17.03;51.96
19736;BME280;32064;49.310;8.646;2024-01-25T12:29:58;101874.28;;;17.03;51.22
19736;BME280;32064;49.310;8.646;2024-01-25T12:32:23;101871.75;;;17.02;51.99
19736;BME280;32064;49.310;8.646;2024-01-25T12:35:00;101865.06;;;16.96;52.29
19736;BME280;32064;49.310;8.646;2024-01-25T12:37:26;101857.47;;;17.03;51.27
19736;BME280;32064;49.310;8.646;2024-01-25T12:39:53;101852.00;;;16.93;52.13
19736;BME280;32064;49.310;8.646;2024-01-25T12:42:19;101843.38;;;16.90;52.32
19736;BME280;32064;49.310;8.646;2024-01-25T12:44:45;101840.47;;;16.81;53.04
19736;BME280;32064;49.310;8.646;2024-01-25T12:47:13;101836.00;;;16.82;51.45